Badger Spring Valley, Nevada Weather observations

Data are for 10 minute period ending at time listed.
 Day   Time   Solar   Ave.   Ave.  Ave.  Vector  Max.   Baro.   Total    
  of    of     Rad.   Air    Rel.  Wind   Wind   Wind  Press.  Precip.   
Year   Day            Temp.  Hum.  Speed  Dir.   Gust                    
2014   (PST)  Kw/m2    F      %     mph   deg.    mph    mb.     in.     
-------------------------------------------------------------------------
 112   11:20   1.09   69.0    15   25.1   184    41.4   501.5    0.00 
 112   11:30   1.11   68.8    15   24.1   193    40.5   501.5    0.00 
 112   11:40   1.05   68.4    17   25.4   208    44.8   501.5    0.00 
 112   11:50   1.11   68.5    18   26.9   192    44.0   501.5    0.00 
 112   12:00   1.13   67.2    17   28.2   205    45.6   501.5    0.00 
 112   12:10   1.16   67.8    16   26.1   203    44.9   501.5    0.00 
 112   12:20   1.02   67.9    15   25.3   192    39.6   501.5    0.00 
 112   12:30   0.67   67.8    14   26.1   192    42.5   501.5    0.00 
 112   12:40   0.84   66.8    14   21.0   194    35.2   501.5    0.00 
 112   12:50   0.92   67.1    14   25.6   192    40.1   501.5    0.00 
 112   13:00   0.79   66.7    13   26.9   186    41.5   501.5    0.00 
 112   13:10   1.08   67.3    12   23.3   203    38.8   501.5    0.00 
 112   13:20   0.94   67.8    12   22.4   199    37.2   501.5    0.00 
 112   13:30   0.96   67.7    11   20.8   195    34.9   501.5    0.00 
 112   13:40   0.94   68.0    11   20.0   192    33.5   501.5    0.00 
 112   13:50   1.03   68.8    11   20.9   188    32.8   501.5    0.00 
 112   14:00   0.97   68.6    10   20.3   189    31.9   501.6    0.00 
 112   14:10   0.93   68.3     9   20.5   210    38.1   501.6    0.00 
 112   14:20   0.87   67.2    10   19.1   234    28.5   501.6    0.00 
 112   14:30   0.83   66.7    10   19.2   222    35.7   501.5    0.00 
 112   14:40   0.87   66.6    10   21.2   239    38.7   501.5    0.00 
 112   14:50   0.92   66.1     9   24.0   248    37.3   501.5    0.00 
 112   15:00   0.75   65.9    10   17.5   241    34.9   501.5    0.00 
 112   15:10   0.70   65.5     9   18.3   216    33.9   501.5    0.00 
 112   15:20   0.67   65.1     9   16.7   240    28.9   501.5    0.00 
 112   15:30   0.63   64.6     9   18.0   233    33.4   501.5    0.00 
 112   15:40   0.59   64.4     9   14.6   229    27.2   501.5    0.00 
 112   15:50   0.55   64.6    10   13.7   232    21.9   501.5    0.00 
 112   16:00   0.51   64.4    10   15.0   235    24.4   501.5    0.00 
 112   16:10   0.48   63.9    10   14.3   232    27.0   501.5    0.00 
 112   16:20   0.44   63.8    10   15.1   233    25.6   501.5    0.00 
 112   16:30   0.39   63.6    10   12.9   230    32.7   501.5    0.00 
 112   16:40   0.35   63.3    10   12.6   235    26.7   501.5    0.00 
 112   16:50   0.30   63.1    10   13.3   235    23.9   501.5    0.00 
 112   17:00   0.23   62.4    10   15.5   273    25.5   501.5    0.00 
 112   17:10   0.19   59.5     8   25.0   301    33.9   501.4    0.00 
 112   17:20   0.17   58.3     8   20.2   298    30.0   501.3    0.00 
 112   17:30   0.14   57.5     7   22.6   302    33.1   501.3    0.00 
 112   17:40   0.11   56.8     7   25.1   298    34.3   501.3    0.00 
 112   17:50   0.08   56.1     7   23.7   304    34.6   501.3    0.00 
 112   18:00   0.04   55.4     7   23.8   301    33.0   501.3    0.00 
 112   18:10   0.03   54.9     7   21.1   300    32.7   501.3    0.00 
 112   18:20   0.01   54.5     6   20.4   306    31.0   501.3    0.00 
 112   18:30   0.01   54.1     7   18.8   312    27.4   501.2    0.00 
 112   18:40   0.00   53.7     7   19.1   308    25.4   501.2    0.00 
 112   18:50   0.00   53.4     7   21.4   315    35.1   501.2    0.00 
 112   19:00   0.00   53.3     7   23.4   319    32.0   501.2    0.00 
 112   19:10   0.00   52.8     7   22.1   315    32.3   501.2    0.00 
 112   19:20   0.00   52.7     7   21.6   319    28.3   501.2    0.00 
 112   19:30   0.00   52.6     7   19.6   316    26.9   501.2    0.00 
 112   19:40   0.00   52.2     8   16.7   317    24.5   501.2    0.00 
 112   19:50   0.00   51.7     8   14.1   327    22.1   501.2    0.00 
 112   20:00   0.00   51.2     8   12.6   324    20.7   501.2    0.00 
 112   20:10   0.00   50.6     9   12.2   330    19.1   501.2    0.00 
 112   20:20   0.00   50.1    10   12.8   324    23.5   500.9    0.00 
 112   20:30   0.00   49.7    10   12.5   335    21.5   500.7    0.00 
 112   20:40   0.00   49.5    10   12.7   337    20.0   501.2    0.00 
 112   20:50   0.00   49.3    10   13.2   332    22.1   501.2    0.00 
 112   21:00   0.00   49.3    11   16.2   338    26.5   501.2    0.00 
 112   21:10   0.00   49.3    11   14.3   331    24.1   501.2    0.00 
 112   21:20   0.00   49.1    11   14.9   334    24.4   501.2    0.00 
 112   21:30   0.00   48.9    11   14.0   332    21.5   501.2    0.00 
 112   21:40   0.00   48.7    12   12.0   332    20.6   501.2    0.00 
 112   21:50   0.00   48.1    13   13.5   350    22.7   501.2    0.00 
 112   22:00   0.00   47.1    19   12.2   354    20.5   501.2    0.00 
 112   22:10   0.00   46.7    21   14.1   345    20.7   501.2    0.00 
 112   22:20   0.00   46.5    22   14.9   345    23.4   501.2    0.00 
 112   22:30   0.00   46.0    24   15.8   345    25.0   501.2    0.00 
 112   22:40   0.00   45.5    25   13.9   335    21.8   501.2    0.00 
 112   22:50   0.00   45.2    25   14.7   330    22.4   501.1    0.00 
 112   23:00   0.00   44.8    26   14.8   338    20.8   500.9    0.00 
 112   23:10   0.00   44.4    26   14.6   343    21.3   501.2    0.00 
 112   23:20   0.00   44.1    26   14.5   355    23.5   501.2    0.00 
 112   23:30   0.00   43.8    27   13.7   354    20.8   501.2    0.00 
 112   23:40   0.00   43.4    27   12.7   342    21.1   501.2    0.00 
 112   23:50   0.00   43.6    26   13.3   344    19.6   501.2    0.00 
 113    0:00   0.00   43.2    26   11.0   354    16.4   501.2    0.00 
 113    0:10   0.00   43.0    26    4.6    30     9.7   501.2    0.00 
 113    0:20   0.00   42.5    26    5.1   360    12.5   501.1    0.00 
 113    0:30   0.00   42.4    26    6.4   357    14.0   501.1    0.00 
 113    0:40   0.00   42.3    27   10.0   343    17.2   501.1    0.00 
 113    0:50   0.00   42.1    27   13.7   348    25.1   500.5    0.00 
 113    1:00   0.00   41.4    28   15.4   346    24.5   500.5    0.00 
 113    1:10   0.00   40.9    29   16.6   348    23.5   500.5    0.00 
 113    1:20   0.00   40.9    30   14.5   348    22.7   500.5    0.00 
 113    1:30   0.00   40.9    30   19.7   352    26.1   500.5    0.00 
 113    1:40   0.00   40.9    30   19.4   353    26.7   500.4    0.00 
 113    1:50   0.00   40.5    31   20.1   347    29.5   500.4    0.00 
 113    2:00   0.00   40.1    32   16.9   340    24.1   500.3    0.00 
 113    2:10   0.00   39.8    32   16.7   348    24.8   500.4    0.00 
 113    2:20   0.00   39.6    33   13.6   348    23.0   500.3    0.00 
 113    2:30   0.00   39.7    33   16.6   344    24.3   500.4    0.00 
 113    2:40   0.00   39.6    33   18.4   346    27.5   500.5    0.00 
 113    2:50   0.00   39.6    34   17.7   346    27.1   500.7    0.00 
 113    3:00   0.00   39.5    34   16.1   350    22.2   501.6    0.00 
 113    3:10   0.00   39.5    34   17.7   358    25.4   503.6    0.00 
 113    3:20   0.00   39.4    35   14.5   352    24.2   501.0    0.00 
 113    3:30   0.00   39.3    35   15.7   344    21.9   500.4    0.00 
 113    3:40   0.00   39.3    35   13.2   350    19.7   500.3    0.00 
 113    3:50   0.00   39.5    35   14.9   348    21.2   500.3    0.00 
 113    4:00   0.00   39.5    35   12.7   359    18.5   500.5    0.00 
 113    4:10   0.00   39.5    35   13.4   359    18.8   520.4    0.00 
 113    4:20   0.00   39.6    35   12.0   355    17.7   550.3    0.00 
 113    4:30   0.00   39.6    35   14.5   353    21.1   550.9    0.00 
 113    4:40   0.00   39.6    35   15.1   354    22.2   547.0    0.00 
 113    4:50   0.00   39.6    35   14.3   353    22.8   500.5    0.00 
 113    5:00   0.00   39.5    35   15.8   359    21.7   500.7    0.00 
 113    5:10   0.00   39.3    36   14.4   359    22.4   500.8    0.00 
 113    5:20   0.02   39.3    36   12.0   347    19.1   500.8    0.00 
 113    5:30   0.03   39.5    36   13.2   341    19.5   500.8    0.00 
 113    5:40   0.03   39.6    36    8.7   337    16.3   500.8    0.00 
 113    5:50   0.06   39.7    37   13.0   349    18.3   501.0    0.00 
 113    6:00   0.09   39.8    36   13.7   351    17.9   501.2    0.00 
 113    6:10   0.11   40.2    36   13.0   348    20.9   501.2    0.00 
 113    6:20   0.07   40.3    35   12.2   355    19.9   501.2    0.00 
 113    6:30   0.10   40.4    35   15.4   354    21.0   501.2    0.00 
 113    6:40   0.17   40.7    34   15.4   355    21.5   501.2    0.00 
 113    6:50   0.22   41.2    34   16.0   346    23.0   501.2    0.00 
 113    7:00   0.44   42.6    33   13.4   354    19.2   501.2    0.00 
 113    7:10   0.49   43.5    31   15.8   356    24.5   501.2    0.00 
 113    7:20   0.37   43.0    31   19.0   352    26.4   501.2    0.00 
 113    7:30   0.37   42.7    31   20.4   346    30.0   501.2    0.00 
 113    7:40   0.66   43.8    30   21.3   356    30.9   501.2    0.00 
 113    7:50   0.62   44.3    29   22.9   360    30.3   501.2    0.00 
 113    8:00   0.66   44.5    28   24.7   358    32.1   501.2    0.00 
 113    8:10   0.69   44.8    28   23.7   354    32.2   501.2    0.00 
 113    8:20   0.72   45.3    28   23.3   354    33.6   501.2    0.00 
 113    8:30   0.75   45.8    27   21.8   348    30.8   501.2    0.00 
 113    8:40   0.78   46.4    26   18.1   344    28.2   501.2    0.00 
 113    8:50   0.81   46.5    24   17.4   352    27.0   501.2    0.00 
 113    9:00   0.85   46.0    25   13.8   354    25.8   501.3    0.00 
 113    9:10   0.88   47.1    24   14.2   340    24.5   501.3    0.00 
 113    9:20   0.91   48.1    23   14.9   354    25.5   501.3    0.00 
 113    9:30   0.93   48.0    23   12.3   355    19.7   501.3    0.00 
 113    9:40   0.96   48.5    23   12.6   359    23.5   501.3    0.00 
 113    9:50   0.98   49.0    22    9.9     1    20.4   501.3    0.00 
 113   10:00   1.00   50.0    21   10.1   347    16.1   501.3    0.00 
 113   10:10   1.02   50.4    20   10.7   343    18.8   501.3    0.00 
 113   10:20   1.04   51.0    20    9.6     7    20.5   501.3    0.00 
 113   10:30   1.06   50.7    20   12.1     4    23.7   501.3    0.00 
 113   10:40   1.07   51.0    20   10.6     8    18.9   501.3    0.00 
 113   10:50   1.09   51.1    19    8.8    35    17.0   501.3    0.00 
 113   11:00   1.10   52.2    18   10.2   342    20.8   501.3    0.00 
 113   11:10   1.11   52.1    18    9.9    20    19.8   501.3    0.00 

Return to Badger Spring Valley graphs page.


Western Regional Climate Center,wrcc@dri.edu